createdAt,value
2018-06-14T00:00:50.340Z,13.87
2018-06-14T00:02:50.452Z,13.87
2018-06-14T00:04:50.717Z,13.85
2018-06-14T00:06:49.963Z,13.84
2018-06-14T00:08:50.014Z,13.83
2018-06-14T00:10:50.091Z,13.81
2018-06-14T00:12:50.221Z,13.80
2018-06-14T00:14:50.308Z,13.78
2018-06-14T00:16:50.551Z,13.77
2018-06-14T00:18:50.684Z,13.75
2018-06-14T00:20:50.813Z,13.75
2018-06-14T00:22:49.945Z,13.74
2018-06-14T00:24:50.029Z,13.75
2018-06-14T00:26:50.279Z,13.75
2018-06-14T00:28:50.347Z,13.75
2018-06-14T00:30:50.456Z,13.75
2018-06-14T00:32:50.594Z,13.75
2018-06-14T00:34:49.932Z,13.73
2018-06-14T00:36:50.102Z,13.71
2018-06-14T00:38:50.205Z,13.71
2018-06-14T00:40:50.339Z,13.71
2018-06-14T00:42:50.481Z,13.69
2018-06-14T00:44:50.617Z,13.68
2018-06-14T00:46:49.942Z,13.67
2018-06-14T00:48:50.055Z,13.66
2018-06-14T00:50:50.170Z,13.67
2018-06-14T00:52:50.374Z,13.67
2018-06-14T00:54:50.501Z,13.68
2018-06-14T00:56:50.755Z,13.66
2018-06-14T00:58:50.869Z,13.66
2018-06-14T01:00:50.031Z,13.64
2018-06-14T01:02:50.190Z,13.64
2018-06-14T01:04:50.625Z,13.64
2018-06-14T01:06:49.876Z,13.63
2018-06-14T01:08:49.998Z,13.61
2018-06-14T01:10:50.120Z,13.62
2018-06-14T01:12:50.307Z,13.63
2018-06-14T01:14:50.533Z,13.61
2018-06-14T01:16:50.880Z,13.61
2018-06-14T01:18:49.999Z,13.60
2018-06-14T01:20:50.126Z,13.61
2018-06-14T01:22:50.254Z,13.61
2018-06-14T01:24:50.353Z,13.60
2018-06-14T01:26:50.654Z,13.59
2018-06-14T01:28:50.830Z,13.58
2018-06-14T01:30:50.033Z,13.58
2018-06-14T01:32:50.175Z,13.58
2018-06-14T01:34:50.446Z,13.58
2018-06-14T01:36:49.974Z,13.58
2018-06-14T01:38:50.139Z,13.57
2018-06-14T01:40:50.224Z,13.56
2018-06-14T01:42:50.304Z,13.53
2018-06-14T01:44:50.443Z,13.53
2018-06-14T01:46:50.733Z,13.53
2018-06-14T01:48:50.832Z,13.53
2018-06-14T01:50:49.927Z,13.53
2018-06-14T01:52:50.147Z,13.53
2018-06-14T01:54:50.340Z,13.53
2018-06-14T01:56:50.554Z,13.53
2018-06-14T01:58:50.684Z,13.53
2018-06-14T02:00:50.802Z,13.53
2018-06-14T02:02:49.878Z,13.53
2018-06-14T02:04:50.382Z,13.51
2018-06-14T02:06:50.654Z,13.49
2018-06-14T02:08:50.484Z,13.48
2018-06-14T02:10:50.608Z,13.46
2018-06-14T02:12:50.747Z,13.45
2018-06-14T02:14:50.854Z,13.45
2018-06-14T02:16:50.160Z,13.43
2018-06-14T02:18:50.335Z,13.44
2018-06-14T02:20:50.527Z,13.44
2018-06-14T02:22:50.658Z,13.44
2018-06-14T02:24:50.722Z,13.46
2018-06-14T02:26:50.025Z,13.46
2018-06-14T02:28:50.127Z,13.46
2018-06-14T02:30:50.295Z,13.46
2018-06-14T02:32:50.401Z,13.46
2018-06-14T02:34:49.896Z,13.45
2018-06-14T02:36:50.158Z,13.44
2018-06-14T02:38:50.311Z,13.43
2018-06-14T02:40:50.543Z,13.43
2018-06-14T02:42:50.712Z,13.45
2018-06-14T02:44:50.844Z,13.46
2018-06-14T02:46:50.147Z,13.46
2018-06-14T02:48:50.266Z,13.45
2018-06-14T02:50:50.451Z,13.44
2018-06-14T02:52:50.727Z,13.41
2018-06-14T02:54:51.012Z,13.40
2018-06-14T02:56:50.202Z,13.38
2018-06-14T02:58:50.413Z,13.37
2018-06-14T03:00:50.545Z,13.37
2018-06-14T03:02:50.696Z,13.38
2018-06-14T03:04:49.987Z,13.39
2018-06-14T03:06:50.215Z,13.38
2018-06-14T03:08:50.381Z,13.38
2018-06-14T03:10:50.535Z,13.36
2018-06-14T03:12:50.748Z,13.35
2018-06-14T03:14:49.943Z,13.33
2018-06-14T03:16:50.322Z,13.34
2018-06-14T03:18:50.483Z,13.35
2018-06-14T03:20:50.579Z,13.35
2018-06-14T03:22:50.739Z,13.35
2018-06-14T03:24:50.836Z,13.35
2018-06-14T03:26:50.083Z,13.34
2018-06-14T03:28:50.252Z,13.34
2018-06-14T03:30:50.387Z,13.34
2018-06-14T03:32:50.593Z,13.34
2018-06-14T03:34:49.873Z,13.34
2018-06-14T03:36:50.244Z,13.35
2018-06-14T03:38:50.348Z,13.36
2018-06-14T03:40:51.070Z,13.36
2018-06-14T03:42:50.402Z,13.38
2018-06-14T03:44:50.538Z,13.38
2018-06-14T03:46:50.841Z,13.39
2018-06-14T03:48:50.033Z,13.38
2018-06-14T03:50:50.168Z,13.40
2018-06-14T03:52:50.337Z,13.41
2018-06-14T03:54:50.489Z,13.41
2018-06-14T03:56:50.855Z,13.43
2018-06-14T03:58:49.967Z,13.46
2018-06-14T04:00:50.159Z,13.48
2018-06-14T04:02:50.287Z,13.50
2018-06-14T04:04:50.583Z,13.51
2018-06-14T04:06:50.843Z,13.51
2018-06-14T04:08:49.978Z,13.51
2018-06-14T04:10:50.165Z,13.53
2018-06-14T04:12:50.365Z,13.54
2018-06-14T04:14:50.512Z,13.53
2018-06-14T04:16:50.693Z,13.53
2018-06-14T04:18:50.819Z,13.56
2018-06-14T04:20:49.963Z,13.56
2018-06-14T04:22:50.086Z,13.62
2018-06-14T04:24:50.228Z,13.63
2018-06-14T04:26:49.935Z,13.63
2018-06-14T04:28:50.064Z,13.65
2018-06-14T04:30:50.205Z,13.64
2018-06-14T04:32:50.418Z,13.66
2018-06-14T04:34:49.955Z,13.66
2018-06-14T04:36:50.184Z,13.71
2018-06-14T04:38:50.291Z,13.73
2018-06-14T04:40:50.416Z,13.77
2018-06-14T04:42:50.620Z,13.79
2018-06-14T04:44:50.752Z,13.79
2018-06-14T04:46:50.052Z,13.82
2018-06-14T04:48:50.359Z,13.83
2018-06-14T04:50:50.500Z,13.88
2018-06-14T04:52:50.725Z,13.90
2018-06-14T04:54:50.874Z,13.90
2018-06-14T04:56:50.135Z,13.97
2018-06-14T04:58:50.248Z,14.00
2018-06-14T05:00:50.371Z,14.07
2018-06-14T05:02:50.498Z,14.09
2018-06-14T05:04:50.010Z,14.15
2018-06-14T05:06:50.312Z,14.15
2018-06-14T05:08:50.400Z,14.13
2018-06-14T05:10:50.524Z,14.18
2018-06-14T05:12:50.666Z,14.20
2018-06-14T05:14:50.783Z,14.30
2018-06-14T05:16:49.916Z,14.28
2018-06-14T05:18:49.932Z,14.35
2018-06-14T05:20:50.060Z,14.37
2018-06-14T05:22:50.064Z,14.41
2018-06-14T05:24:50.027Z,14.45
2018-06-14T05:26:50.126Z,14.48
2018-06-14T05:28:50.123Z,14.47
2018-06-14T05:30:50.076Z,14.46
2018-06-14T05:32:50.018Z,14.55
2018-06-14T05:34:50.141Z,14.59
2018-06-14T05:36:50.682Z,14.63
2018-06-14T05:38:50.821Z,14.71
2018-06-14T05:40:50.030Z,14.74
2018-06-14T05:42:50.248Z,14.81
2018-06-14T05:44:50.388Z,14.85
2018-06-14T05:46:50.725Z,14.93
2018-06-14T05:48:50.839Z,14.88
2018-06-14T05:50:49.973Z,14.92
2018-06-14T05:52:50.080Z,14.95
2018-06-14T05:54:50.240Z,14.96
2018-06-14T05:56:50.476Z,15.07
2018-06-14T05:58:50.633Z,15.11
2018-06-14T06:00:50.824Z,15.16
2018-06-14T06:02:50.204Z,15.18
2018-06-14T06:04:50.722Z,15.32
2018-06-14T06:06:50.013Z,15.32
2018-06-14T06:08:50.154Z,15.50
2018-06-14T06:10:50.262Z,15.54
2018-06-14T06:12:50.441Z,15.55
2018-06-14T06:14:50.568Z,15.55
2018-06-14T06:16:50.793Z,15.75
2018-06-14T06:18:49.945Z,15.78
2018-06-14T06:20:50.036Z,15.79
2018-06-14T06:22:50.172Z,15.89
2018-06-14T06:24:50.303Z,15.96
2018-06-14T06:26:50.602Z,16.12
2018-06-14T06:28:50.212Z,16.16
2018-06-14T06:30:50.708Z,16.19
2018-06-14T06:32:50.853Z,16.23
2018-06-14T06:34:50.256Z,16.29
2018-06-14T06:36:50.754Z,16.29
2018-06-14T06:38:50.471Z,16.33
2018-06-14T06:40:50.640Z,16.37
2018-06-14T06:42:50.850Z,16.54
2018-06-14T06:44:50.179Z,16.62
2018-06-14T06:46:50.436Z,16.67
2018-06-14T06:48:50.657Z,16.62
2018-06-14T06:50:50.868Z,16.69
2018-06-14T06:52:50.119Z,16.74
2018-06-14T06:54:50.316Z,16.73
2018-06-14T06:56:50.548Z,16.75
2018-06-14T06:58:50.973Z,16.80
2018-06-14T07:00:50.203Z,16.78
2018-06-14T07:02:50.416Z,16.81
2018-06-14T07:04:50.853Z,16.99
2018-06-14T07:06:50.317Z,16.96
2018-06-14T07:08:50.413Z,16.98
2018-06-14T07:10:50.577Z,17.05
2018-06-14T07:12:50.765Z,17.05
2018-06-14T07:14:49.932Z,17.34
2018-06-14T07:16:50.313Z,17.44
2018-06-14T07:18:50.448Z,17.53
2018-06-14T07:20:50.729Z,17.74
2018-06-14T07:22:49.912Z,17.85
2018-06-14T07:24:50.085Z,18.15
2018-06-14T07:26:50.302Z,18.17
2018-06-14T07:28:50.502Z,17.87
2018-06-14T07:30:50.659Z,17.70
2018-06-14T07:32:50.871Z,17.73
2018-06-14T07:34:50.298Z,17.76
2018-06-14T07:36:50.539Z,17.78
2018-06-14T07:38:50.653Z,17.60
2018-06-14T07:40:50.830Z,17.54
2018-06-14T07:42:50.112Z,17.30
2018-06-14T07:44:50.284Z,17.23
2018-06-14T07:46:50.533Z,17.15
2018-06-14T07:48:50.693Z,17.08
2018-06-14T07:50:50.813Z,17.09
2018-06-14T07:52:49.916Z,17.04
2018-06-14T07:54:50.038Z,16.99
2018-06-14T07:56:50.455Z,16.83
2018-06-14T07:58:50.626Z,16.92
2018-06-14T08:00:50.735Z,17.19
2018-06-14T08:02:50.837Z,17.31
2018-06-14T08:04:50.162Z,17.33
2018-06-14T08:06:50.497Z,17.30
2018-06-14T08:08:50.650Z,17.23
2018-06-14T08:10:50.816Z,17.29
2018-06-14T08:12:50.107Z,17.50
2018-06-14T08:14:50.209Z,17.52
2018-06-14T08:16:50.509Z,17.54
2018-06-14T08:18:50.662Z,17.51
2018-06-14T08:20:50.844Z,17.28
2018-06-14T08:22:49.951Z,17.27
2018-06-14T08:24:50.209Z,17.23
2018-06-14T08:26:50.535Z,17.31
2018-06-14T08:28:50.626Z,17.33
2018-06-14T08:30:50.766Z,17.48
2018-06-14T08:32:49.904Z,17.54
2018-06-14T08:34:50.254Z,17.58
2018-06-14T08:36:50.573Z,17.66
2018-06-14T08:38:50.731Z,17.64
2018-06-14T08:40:50.920Z,17.64
2018-06-14T08:42:50.052Z,17.61
2018-06-14T08:44:50.601Z,17.39
2018-06-14T08:46:50.870Z,17.22
2018-06-14T08:48:50.091Z,17.23
2018-06-14T08:50:50.222Z,17.02
2018-06-14T08:52:50.304Z,17.03
2018-06-14T08:54:50.419Z,16.98
2018-06-14T08:56:50.636Z,17.15
2018-06-14T08:58:50.819Z,17.24
2018-06-14T09:00:49.959Z,17.36
2018-06-14T09:02:50.145Z,17.44
2018-06-14T09:04:50.485Z,17.60
2018-06-14T09:06:50.811Z,17.72
2018-06-14T09:08:49.944Z,18.00
2018-06-14T09:10:50.092Z,18.41
2018-06-14T09:12:50.257Z,18.41
2018-06-14T09:14:50.386Z,18.30
2018-06-14T09:16:50.774Z,18.36
2018-06-14T09:18:50.002Z,18.59
2018-06-14T09:20:50.098Z,18.70
2018-06-14T09:22:50.322Z,18.68
2018-06-14T09:24:50.434Z,18.65
2018-06-14T09:26:50.652Z,18.63
2018-06-14T09:28:50.785Z,18.62
2018-06-14T09:30:49.970Z,18.92
2018-06-14T09:32:50.116Z,18.97
2018-06-14T09:34:50.540Z,18.89
2018-06-14T09:36:49.887Z,18.88
2018-06-14T09:38:50.070Z,18.96
2018-06-14T09:40:50.192Z,19.25
2018-06-14T09:42:50.642Z,19.46
2018-06-14T09:44:50.045Z,19.55
2018-06-14T09:46:50.416Z,19.65
2018-06-14T09:48:50.566Z,19.51
2018-06-14T09:50:50.673Z,19.24
2018-06-14T09:52:49.925Z,18.93
2018-06-14T09:54:50.083Z,18.77
2018-06-14T09:56:50.331Z,18.42
2018-06-14T09:58:50.475Z,18.42
2018-06-14T10:00:50.720Z,18.35
2018-06-14T10:02:50.687Z,18.27
2018-06-14T10:04:50.319Z,18.36
2018-06-14T10:06:50.605Z,18.65
2018-06-14T10:08:50.827Z,18.86
2018-06-14T10:10:49.993Z,19.03
2018-06-14T10:12:50.180Z,19.03
2018-06-14T10:14:50.338Z,19.19
2018-06-14T10:16:50.647Z,19.18
2018-06-14T10:18:50.798Z,19.08
2018-06-14T10:20:49.908Z,19.06
2018-06-14T10:22:50.020Z,19.11
2018-06-14T10:24:50.122Z,18.73
2018-06-14T10:26:50.352Z,18.73
2018-06-14T10:28:50.463Z,18.70
2018-06-14T10:30:50.588Z,18.85
2018-06-14T10:32:50.784Z,19.21
2018-06-14T10:34:50.224Z,19.40
2018-06-14T10:36:50.469Z,20.09
2018-06-14T10:38:50.675Z,20.28
2018-06-14T10:40:50.838Z,20.00
2018-06-14T10:42:50.196Z,20.14
2018-06-14T10:44:50.380Z,20.73
2018-06-14T10:46:50.597Z,20.80
2018-06-14T10:48:50.713Z,20.77
2018-06-14T10:50:50.866Z,21.30
2018-06-14T10:52:49.950Z,21.30
2018-06-14T10:54:50.144Z,21.40
2018-06-14T10:56:50.414Z,20.92
2018-06-14T10:58:50.488Z,20.49
2018-06-14T11:00:50.668Z,20.17
2018-06-14T11:02:50.015Z,20.12
2018-06-14T11:04:50.379Z,20.37
2018-06-14T11:06:50.652Z,19.77
2018-06-14T11:08:50.801Z,19.51
2018-06-14T11:10:49.887Z,19.43
2018-06-14T11:12:50.043Z,19.41
2018-06-14T11:14:50.142Z,20.64
2018-06-14T11:16:50.397Z,21.18
2018-06-14T11:18:50.564Z,21.57
2018-06-14T11:20:50.742Z,21.25
2018-06-14T11:22:49.892Z,21.47
2018-06-14T11:24:50.042Z,21.50
2018-06-14T11:26:50.285Z,21.28
2018-06-14T11:28:50.412Z,21.28
2018-06-14T11:30:50.571Z,21.40
2018-06-14T11:32:50.795Z,21.47
2018-06-14T11:34:50.331Z,20.93
2018-06-14T11:36:50.591Z,20.67
2018-06-14T11:38:50.715Z,20.57
2018-06-14T11:40:50.847Z,20.87
2018-06-14T11:42:50.033Z,20.92
2018-06-14T11:44:50.184Z,21.09
2018-06-14T11:46:50.550Z,21.09
2018-06-14T11:48:50.737Z,21.35
2018-06-14T11:50:49.903Z,21.54
2018-06-14T11:52:50.167Z,21.86
2018-06-14T11:54:50.281Z,22.05
2018-06-14T11:56:50.542Z,22.19
2018-06-14T11:58:50.702Z,22.23
2018-06-14T12:00:50.776Z,22.23
2018-06-14T12:02:49.912Z,22.11
2018-06-14T12:04:50.290Z,21.75
2018-06-14T12:06:50.650Z,22.10
2018-06-14T12:08:50.808Z,23.22
2018-06-14T12:10:49.920Z,23.5
2018-06-14T12:12:50.050Z,23.5
2018-06-14T12:14:50.210Z,23.5
2018-06-14T12:16:50.504Z,23.6
2018-06-14T12:18:50.676Z,23.6
2018-06-14T12:20:50.836Z,23.6
2018-06-14T12:22:50.119Z,23.6
2018-06-14T12:24:50.248Z,23.35
2018-06-14T12:26:50.593Z,22.71
2018-06-14T12:28:50.722Z,22.71
2018-06-14T12:30:49.902Z,21.57
2018-06-14T12:32:50.009Z,20.98
2018-06-14T12:34:50.409Z,20.39
2018-06-14T12:36:50.686Z,20.39
2018-06-14T12:38:50.805Z,20.14
2018-06-14T12:40:50.100Z,20.36
2018-06-14T12:42:50.192Z,20.41
2018-06-14T12:44:50.343Z,20.29
2018-06-14T12:46:50.570Z,20.29
2018-06-14T12:48:50.685Z,20.74
2018-06-14T12:50:49.897Z,20.90
2018-06-14T12:52:50.103Z,21.26
2018-06-14T12:54:50.187Z,21.29
2018-06-14T12:56:50.544Z,21.37
2018-06-14T12:58:50.683Z,21.24
2018-06-14T13:00:50.869Z,21.04
2018-06-14T13:02:49.980Z,21.36
2018-06-14T13:04:50.218Z,21.18
2018-06-14T13:06:50.505Z,21.04
2018-06-14T13:08:50.811Z,20.86
2018-06-14T13:10:49.924Z,20.97
2018-06-14T13:12:50.121Z,21.26
2018-06-14T13:14:50.495Z,21.40
2018-06-14T13:16:50.495Z,20.96
2018-06-14T13:18:50.614Z,20.86
2018-06-14T13:20:50.765Z,20.93
2018-06-14T13:22:50.150Z,20.93
2018-06-14T13:24:50.307Z,20.75
2018-06-14T13:26:50.619Z,22.00
2018-06-14T13:28:50.776Z,22.47
2018-06-14T13:30:49.890Z,23.0
2018-06-14T13:32:50.202Z,23.0
2018-06-14T13:34:50.506Z,23.0
2018-06-14T13:36:50.775Z,23.1
2018-06-14T13:38:49.928Z,23.2
2018-06-14T13:40:50.081Z,23.2
2018-06-14T13:42:50.508Z,22.85
2018-06-14T13:44:50.234Z,22.63
2018-06-14T13:46:50.537Z,22.63
2018-06-14T13:48:51.585Z,22.72
2018-06-14T13:50:49.949Z,23.0
2018-06-14T13:52:50.099Z,22.9
2018-06-14T13:54:50.201Z,22.8
2018-06-14T13:56:50.555Z,22.8
2018-06-14T13:58:50.672Z,22.8
2018-06-14T14:00:51.385Z,22.7
2018-06-14T14:02:50.712Z,22.6
2018-06-14T14:04:50.390Z,22.7
2018-06-14T14:06:50.561Z,22.7
2018-06-14T14:08:50.655Z,22.7
2018-06-14T14:10:50.844Z,22.8
2018-06-14T14:12:50.010Z,22.8
2018-06-14T14:14:50.215Z,22.9
2018-06-14T14:16:50.444Z,22.9
2018-06-14T14:18:50.587Z,22.9
2018-06-14T14:20:50.697Z,22.9
2018-06-14T14:22:50.866Z,22.9
2018-06-14T14:24:50.016Z,22.9
2018-06-14T14:26:50.266Z,22.9
2018-06-14T14:28:50.411Z,22.8
2018-06-14T14:30:50.537Z,22.8
2018-06-14T14:32:50.669Z,22.8
2018-06-14T14:34:49.986Z,22.8
2018-06-14T14:36:50.268Z,22.8
2018-06-14T14:38:50.360Z,22.6
2018-06-14T14:40:50.498Z,22.6
2018-06-14T14:42:50.608Z,22.6
2018-06-14T14:44:50.860Z,22.5
2018-06-14T14:46:50.102Z,22.5
2018-06-14T14:48:50.301Z,22.5
2018-06-14T14:50:50.407Z,22.6
2018-06-14T14:52:50.518Z,22.6
2018-06-14T14:54:50.775Z,22.8
2018-06-14T14:56:50.114Z,22.8
2018-06-14T14:58:50.251Z,22.9
2018-06-14T15:00:50.377Z,23.0
2018-06-14T15:02:50.473Z,23.0
2018-06-14T15:04:50.794Z,23.1
2018-06-14T15:06:50.054Z,23.1
2018-06-14T15:08:50.224Z,23.2
2018-06-14T15:10:50.377Z,23.2
2018-06-14T15:12:50.481Z,23.2
2018-06-14T15:14:50.661Z,23.2
2018-06-14T15:16:49.966Z,23.2
2018-06-14T15:18:50.120Z,23.2
2018-06-14T15:20:50.244Z,23.3
2018-06-14T15:22:50.396Z,23.4
2018-06-14T15:24:50.529Z,23.4
2018-06-14T15:26:50.842Z,23.4
2018-06-14T15:28:50.023Z,23.3
2018-06-14T15:30:50.201Z,23.3
2018-06-14T15:32:50.289Z,23.3
2018-06-14T15:34:50.529Z,23.2
2018-06-14T15:36:50.795Z,23.2
2018-06-14T15:38:49.916Z,23.3
2018-06-14T15:40:50.185Z,23.4
2018-06-14T15:42:50.309Z,23.6
2018-06-14T15:44:50.609Z,23.6
2018-06-14T15:46:50.892Z,23.7
2018-06-14T15:48:50.445Z,23.7
2018-06-14T15:50:50.782Z,23.8
2018-06-14T15:52:49.981Z,23.8
2018-06-14T15:54:50.132Z,23.9
2018-06-14T15:56:50.370Z,23.9
2018-06-14T15:58:50.590Z,23.9
2018-06-14T16:00:51.168Z,24.0
2018-06-14T16:02:50.400Z,24.0
2018-06-14T16:04:50.848Z,24.0
2018-06-14T16:06:50.191Z,24.0
2018-06-14T16:08:50.304Z,24.0
2018-06-14T16:10:50.782Z,23.9
2018-06-14T16:12:50.116Z,24.0
2018-06-14T16:14:50.259Z,24.0
2018-06-14T16:16:50.511Z,24.0
2018-06-14T16:18:50.682Z,24.0
2018-06-14T16:20:50.873Z,24.0
2018-06-14T16:22:50.038Z,24.0
2018-06-14T16:24:50.191Z,24.1
2018-06-14T16:26:50.879Z,24.0
2018-06-14T16:28:50.145Z,24.1
2018-06-14T16:30:50.289Z,24.1
2018-06-14T16:32:50.522Z,24.2
2018-06-14T16:34:50.840Z,24.2
2018-06-14T16:36:50.066Z,24.2
2018-06-14T16:38:50.221Z,24.3
2018-06-14T16:40:50.401Z,24.3
2018-06-14T16:42:50.652Z,24.4
2018-06-14T16:44:50.802Z,24.5
2018-06-14T16:46:50.190Z,24.6
2018-06-14T16:48:50.310Z,24.6
2018-06-14T16:50:50.436Z,24.6
2018-06-14T16:52:50.603Z,24.7
2018-06-14T16:54:50.780Z,24.7
2018-06-14T16:56:50.022Z,24.7
2018-06-14T16:58:50.134Z,24.7
2018-06-14T17:00:50.282Z,24.8
2018-06-14T17:02:50.429Z,24.9
2018-06-14T17:04:50.813Z,25.0
2018-06-14T17:06:50.028Z,25.0
2018-06-14T17:08:50.187Z,25.0
2018-06-14T17:10:50.391Z,25.0
2018-06-14T17:12:50.656Z,24.9
2018-06-14T17:14:50.775Z,24.7
2018-06-14T17:16:50.078Z,24.7
2018-06-14T17:18:50.261Z,24.5
2018-06-14T17:20:50.413Z,23.40
2018-06-14T17:22:50.592Z,23.13
2018-06-14T17:24:50.791Z,22.59
2018-06-14T17:26:50.029Z,22.34
2018-06-14T17:28:50.122Z,21.95
2018-06-14T17:30:50.229Z,21.73
2018-06-14T17:32:50.595Z,21.46
2018-06-14T17:34:50.028Z,21.27
2018-06-14T17:36:50.344Z,21.23
2018-06-14T17:38:50.513Z,20.99
2018-06-14T17:40:50.721Z,20.95
2018-06-14T17:42:50.883Z,20.80
2018-06-14T17:44:50.068Z,20.80
2018-06-14T17:46:50.286Z,20.63
2018-06-14T17:48:50.429Z,20.60
2018-06-14T17:50:50.548Z,20.47
2018-06-14T17:52:50.798Z,20.46
2018-06-14T17:54:49.871Z,20.47
2018-06-14T17:56:50.528Z,20.50
2018-06-14T17:58:50.696Z,20.53
2018-06-14T18:00:51.244Z,20.51
2018-06-14T18:02:50.688Z,20.43
2018-06-14T18:04:49.980Z,20.40
2018-06-14T18:06:50.304Z,20.44
2018-06-14T18:08:50.463Z,20.45
2018-06-14T18:10:50.616Z,20.32
2018-06-14T18:12:49.921Z,20.24
2018-06-14T18:14:50.056Z,20.19
2018-06-14T18:16:50.333Z,20.19
2018-06-14T18:18:50.500Z,20.14
2018-06-14T18:20:50.653Z,20.07
2018-06-14T18:22:50.869Z,20.01
2018-06-14T18:24:50.059Z,19.99
2018-06-14T18:26:50.257Z,19.97
2018-06-14T18:28:50.422Z,19.97
2018-06-14T18:30:50.516Z,19.78
2018-06-14T18:32:51.022Z,19.78
2018-06-14T18:34:50.489Z,19.65
2018-06-14T18:36:50.809Z,19.61
2018-06-14T18:38:49.914Z,19.60
2018-06-14T18:40:50.028Z,19.58
2018-06-14T18:42:50.216Z,19.48
2018-06-14T18:44:50.419Z,19.46
2018-06-14T18:46:50.715Z,19.35
2018-06-14T18:48:49.964Z,19.33
2018-06-14T18:50:50.101Z,19.27
2018-06-14T18:52:50.305Z,19.24
2018-06-14T18:54:50.397Z,19.22
2018-06-14T18:56:50.597Z,19.21
2018-06-14T18:58:50.755Z,19.20
2018-06-14T19:00:49.990Z,19.17
2018-06-14T19:02:50.156Z,19.12
2018-06-14T19:04:50.473Z,19.10
2018-06-14T19:06:50.752Z,19.07
2018-06-14T19:08:49.883Z,19.03
2018-06-14T19:10:50.037Z,19.00
2018-06-14T19:12:50.160Z,19.00
2018-06-14T19:14:50.546Z,18.96
2018-06-14T19:16:50.810Z,18.95
2018-06-14T19:18:49.977Z,18.94
2018-06-14T19:20:50.182Z,18.91
2018-06-14T19:22:50.379Z,18.88
2018-06-14T19:24:50.571Z,18.86
2018-06-14T19:26:50.881Z,18.83
2018-06-14T19:28:50.016Z,18.80
2018-06-14T19:30:50.273Z,18.79
2018-06-14T19:32:50.429Z,18.77
2018-06-14T19:34:50.770Z,18.71
2018-06-14T19:36:49.973Z,18.63
2018-06-14T19:38:50.125Z,18.61
2018-06-14T19:40:50.223Z,18.56
2018-06-14T19:42:50.486Z,18.55
2018-06-14T19:44:50.626Z,18.51
2018-06-14T19:46:50.045Z,18.51
2018-06-14T19:48:50.199Z,18.42
2018-06-14T19:50:50.432Z,18.32
2018-06-14T19:52:50.588Z,18.30
2018-06-14T19:54:51.130Z,18.24
2018-06-14T19:56:50.533Z,18.22
2018-06-14T19:58:50.736Z,18.17
2018-06-14T20:00:50.867Z,18.17
2018-06-14T20:02:50.157Z,18.08
2018-06-14T20:04:50.708Z,18.03
2018-06-14T20:06:49.945Z,17.97
2018-06-14T20:08:50.120Z,17.92
2018-06-14T20:10:50.315Z,17.81
2018-06-14T20:12:50.419Z,17.67
2018-06-14T20:14:50.557Z,17.63
2018-06-14T20:16:49.946Z,17.58
2018-06-14T20:18:50.036Z,17.55
2018-06-14T20:20:50.643Z,17.52
2018-06-14T20:22:49.862Z,17.51
2018-06-14T20:24:49.979Z,17.49
2018-06-14T20:26:50.264Z,17.47
2018-06-14T20:28:50.514Z,17.42
2018-06-14T20:30:50.821Z,17.37
2018-06-14T20:32:50.025Z,17.24
2018-06-14T20:34:50.489Z,17.20
2018-06-14T20:36:50.779Z,17.11
2018-06-14T20:38:50.016Z,17.07
2018-06-14T20:40:50.145Z,16.99
2018-06-14T20:42:50.315Z,16.99
2018-06-14T20:44:50.611Z,16.91
2018-06-14T20:46:50.886Z,16.85
2018-06-14T20:48:50.468Z,16.81
2018-06-14T20:50:50.759Z,16.79
2018-06-14T20:52:50.890Z,16.75
2018-06-14T20:54:50.050Z,16.74
2018-06-14T20:56:50.321Z,16.73
2018-06-14T20:58:50.469Z,16.67
2018-06-14T21:00:50.671Z,16.58
2018-06-14T21:02:50.835Z,16.48
2018-06-14T21:04:50.153Z,16.38
2018-06-14T21:06:50.409Z,16.23
2018-06-14T21:08:50.584Z,16.10
2018-06-14T21:10:50.722Z,16.10
2018-06-14T21:12:49.931Z,15.89
2018-06-14T21:14:50.054Z,15.75
2018-06-14T21:16:50.218Z,15.63
2018-06-14T21:18:50.398Z,15.54
2018-06-14T21:20:50.858Z,15.42
2018-06-14T21:22:50.300Z,15.36
2018-06-14T21:24:50.395Z,15.21
2018-06-14T21:26:50.659Z,15.12
2018-06-14T21:28:50.773Z,15.08
2018-06-14T21:30:49.936Z,14.96
2018-06-14T21:32:50.091Z,14.86
2018-06-14T21:34:50.412Z,14.71
2018-06-14T21:36:50.729Z,14.64
2018-06-14T21:38:50.833Z,14.58
2018-06-14T21:40:49.953Z,14.56
2018-06-14T21:42:50.082Z,14.49
2018-06-14T21:44:50.210Z,14.40
2018-06-14T21:46:50.434Z,14.38
2018-06-14T21:48:50.630Z,14.36
2018-06-14T21:50:50.797Z,14.40
2018-06-14T21:52:50.070Z,14.54
2018-06-14T21:54:50.179Z,14.58
2018-06-14T21:56:50.468Z,14.63
2018-06-14T21:58:50.607Z,14.64
2018-06-14T22:00:50.713Z,14.67
2018-06-14T22:02:50.788Z,14.67
2018-06-14T22:04:50.279Z,14.68
2018-06-14T22:06:50.565Z,14.66
2018-06-14T22:08:50.700Z,14.62
2018-06-14T22:10:49.902Z,14.53
2018-06-14T22:12:50.138Z,14.49
2018-06-14T22:14:50.277Z,14.37
2018-06-14T22:16:50.467Z,14.29
2018-06-14T22:18:50.579Z,14.28
2018-06-14T22:20:50.715Z,14.20
2018-06-14T22:22:50.869Z,14.11
2018-06-14T22:24:49.964Z,13.99
2018-06-14T22:26:50.173Z,13.92
2018-06-14T22:28:50.327Z,13.88
2018-06-14T22:30:50.494Z,13.84
2018-06-14T22:32:50.577Z,13.68
2018-06-14T22:34:49.911Z,13.62
2018-06-14T22:36:49.918Z,13.56
2018-06-14T22:38:50.035Z,13.49
2018-06-14T22:40:50.304Z,13.41
2018-06-14T22:42:50.541Z,13.38
2018-06-14T22:44:50.760Z,13.34
2018-06-14T22:46:50.053Z,13.33
2018-06-14T22:48:50.187Z,13.32
2018-06-14T22:50:50.330Z,13.28
2018-06-14T22:52:50.818Z,13.28
2018-06-14T22:54:50.472Z,13.13
2018-06-14T22:56:50.781Z,13.08
2018-06-14T22:58:49.909Z,12.95
2018-06-14T23:00:50.128Z,12.86
2018-06-14T23:02:50.303Z,12.83
2018-06-14T23:04:50.641Z,12.76
2018-06-14T23:06:50.151Z,12.72
2018-06-14T23:08:50.324Z,12.68
2018-06-14T23:10:50.459Z,12.65
2018-06-14T23:12:50.364Z,12.59
2018-06-14T23:14:50.511Z,12.56
2018-06-14T23:16:50.805Z,12.52
2018-06-14T23:18:49.928Z,12.52
2018-06-14T23:20:50.132Z,12.50
2018-06-14T23:22:50.299Z,12.46
2018-06-14T23:24:50.456Z,12.45
2018-06-14T23:26:50.712Z,12.45
2018-06-14T23:28:50.857Z,12.44
2018-06-14T23:30:49.952Z,12.43
2018-06-14T23:32:50.124Z,12.42
2018-06-14T23:34:50.400Z,12.39
2018-06-14T23:36:50.716Z,12.36
2018-06-14T23:38:50.831Z,12.35
2018-06-14T23:40:49.960Z,12.33
2018-06-14T23:42:50.196Z,12.30
2018-06-14T23:44:50.351Z,12.28
2018-06-14T23:46:50.847Z,12.20
2018-06-14T23:48:50.034Z,12.16
2018-06-14T23:50:50.163Z,12.12
2018-06-14T23:52:50.376Z,12.14
2018-06-14T23:54:50.540Z,12.11
2018-06-14T23:56:50.724Z,12.05
2018-06-14T23:58:49.937Z,12.03
